sensor_id;sensor_type;location;lat;lon;timestamp;P1;durP1;ratioP1;P2;durP2;ratioP2
71360;SDS011;59166;48.908;1.870;2023-03-03T00:03:51;42.53;;;15.87;;
71360;SDS011;59166;48.908;1.870;2023-03-03T00:08:51;42.83;;;16.13;;
71360;SDS011;59166;48.908;1.870;2023-03-03T00:13:54;44.13;;;17.13;;
71360;SDS011;59166;48.908;1.870;2023-03-03T00:18:56;44.08;;;16.80;;
71360;SDS011;59166;48.908;1.870;2023-03-03T00:24:04;41.15;;;15.27;;
71360;SDS011;59166;48.908;1.870;2023-03-03T00:29:29;41.57;;;15.30;;
71360;SDS011;59166;48.908;1.870;2023-03-03T00:34:33;35.20;;;14.82;;
71360;SDS011;59166;48.908;1.870;2023-03-03T00:39:36;45.45;;;17.02;;
71360;SDS011;59166;48.908;1.870;2023-03-03T00:44:39;51.90;;;17.93;;
71360;SDS011;59166;48.908;1.870;2023-03-03T00:49:42;41.10;;;16.47;;
71360;SDS011;59166;48.908;1.870;2023-03-03T00:54:43;40.42;;;16.05;;
71360;SDS011;59166;48.908;1.870;2023-03-03T00:59:45;46.15;;;16.48;;
71360;SDS011;59166;48.908;1.870;2023-03-03T01:04:47;41.03;;;16.43;;
71360;SDS011;59166;48.908;1.870;2023-03-03T01:09:51;43.50;;;16.35;;
71360;SDS011;59166;48.908;1.870;2023-03-03T01:14:53;44.80;;;15.53;;
71360;SDS011;59166;48.908;1.870;2023-03-03T01:19:54;42.42;;;16.58;;
71360;SDS011;59166;48.908;1.870;2023-03-03T01:24:55;44.80;;;16.13;;
71360;SDS011;59166;48.908;1.870;2023-03-03T01:29:57;50.83;;;17.27;;
71360;SDS011;59166;48.908;1.870;2023-03-03T01:34:58;39.42;;;15.10;;
71360;SDS011;59166;48.908;1.870;2023-03-03T01:39:59;40.23;;;14.83;;
71360;SDS011;59166;48.908;1.870;2023-03-03T01:45:11;43.30;;;16.08;;
71360;SDS011;59166;48.908;1.870;2023-03-03T01:50:16;43.07;;;16.07;;
71360;SDS011;59166;48.908;1.870;2023-03-03T01:55:27;47.55;;;17.40;;
71360;SDS011;59166;48.908;1.870;2023-03-03T02:00:33;41.45;;;16.65;;
71360;SDS011;59166;48.908;1.870;2023-03-03T02:05:35;43.40;;;16.40;;
71360;SDS011;59166;48.908;1.870;2023-03-03T02:10:38;42.67;;;15.67;;
71360;SDS011;59166;48.908;1.870;2023-03-03T02:15:41;45.17;;;16.20;;
71360;SDS011;59166;48.908;1.870;2023-03-03T02:20:44;41.13;;;15.57;;
71360;SDS011;59166;48.908;1.870;2023-03-03T02:26:10;46.20;;;16.13;;
71360;SDS011;59166;48.908;1.870;2023-03-03T02:31:14;39.95;;;14.90;;
71360;SDS011;59166;48.908;1.870;2023-03-03T02:36:17;44.03;;;15.57;;
71360;SDS011;59166;48.908;1.870;2023-03-03T02:41:25;48.60;;;18.23;;
71360;SDS011;59166;48.908;1.870;2023-03-03T02:46:31;46.33;;;17.30;;
71360;SDS011;59166;48.908;1.870;2023-03-03T02:51:33;47.45;;;18.33;;
71360;SDS011;59166;48.908;1.870;2023-03-03T02:56:36;52.50;;;18.40;;
71360;SDS011;59166;48.908;1.870;2023-03-03T03:01:37;45.33;;;16.67;;
71360;SDS011;59166;48.908;1.870;2023-03-03T03:06:40;50.30;;;18.55;;
71360;SDS011;59166;48.908;1.870;2023-03-03T03:11:42;48.80;;;18.88;;
71360;SDS011;59166;48.908;1.870;2023-03-03T03:16:43;52.57;;;18.40;;
71360;SDS011;59166;48.908;1.870;2023-03-03T03:21:44;51.40;;;19.70;;
71360;SDS011;59166;48.908;1.870;2023-03-03T03:26:46;47.13;;;17.70;;
71360;SDS011;59166;48.908;1.870;2023-03-03T03:31:47;50.90;;;19.40;;
71360;SDS011;59166;48.908;1.870;2023-03-03T03:36:48;50.27;;;18.57;;
71360;SDS011;59166;48.908;1.870;2023-03-03T03:41:50;51.72;;;20.02;;
71360;SDS011;59166;48.908;1.870;2023-03-03T03:46:51;55.43;;;21.20;;
71360;SDS011;59166;48.908;1.870;2023-03-03T03:51:52;55.17;;;19.75;;
71360;SDS011;59166;48.908;1.870;2023-03-03T03:56:54;52.50;;;19.73;;
71360;SDS011;59166;48.908;1.870;2023-03-03T04:01:55;54.50;;;20.30;;
71360;SDS011;59166;48.908;1.870;2023-03-03T04:06:56;58.83;;;21.48;;
71360;SDS011;59166;48.908;1.870;2023-03-03T04:11:58;54.43;;;19.83;;
71360;SDS011;59166;48.908;1.870;2023-03-03T04:16:59;55.97;;;19.63;;
71360;SDS011;59166;48.908;1.870;2023-03-03T04:22:00;52.58;;;18.88;;
71360;SDS011;59166;48.908;1.870;2023-03-03T04:27:03;53.87;;;19.13;;
71360;SDS011;59166;48.908;1.870;2023-03-03T04:32:04;53.45;;;18.75;;
71360;SDS011;59166;48.908;1.870;2023-03-03T04:37:04;48.20;;;18.60;;
71360;SDS011;59166;48.908;1.870;2023-03-03T04:42:06;57.63;;;17.93;;
71360;SDS011;59166;48.908;1.870;2023-03-03T04:47:07;56.93;;;20.47;;
71360;SDS011;59166;48.908;1.870;2023-03-03T04:52:08;55.73;;;20.57;;
71360;SDS011;59166;48.908;1.870;2023-03-03T04:57:10;55.17;;;20.07;;
71360;SDS011;59166;48.908;1.870;2023-03-03T05:02:10;58.25;;;20.85;;
71360;SDS011;59166;48.908;1.870;2023-03-03T05:07:11;61.63;;;20.87;;
71360;SDS011;59166;48.908;1.870;2023-03-03T05:12:13;54.73;;;18.80;;
71360;SDS011;59166;48.908;1.870;2023-03-03T05:17:13;52.05;;;19.77;;
71360;SDS011;59166;48.908;1.870;2023-03-03T05:22:14;54.57;;;19.00;;
71360;SDS011;59166;48.908;1.870;2023-03-03T05:27:16;53.47;;;19.52;;
71360;SDS011;59166;48.908;1.870;2023-03-03T05:32:17;54.10;;;19.30;;
71360;SDS011;59166;48.908;1.870;2023-03-03T05:37:18;54.78;;;19.98;;
71360;SDS011;59166;48.908;1.870;2023-03-03T05:42:20;43.20;;;15.73;;
71360;SDS011;59166;48.908;1.870;2023-03-03T05:47:20;56.37;;;19.47;;
71360;SDS011;59166;48.908;1.870;2023-03-03T05:52:21;50.90;;;18.70;;
71360;SDS011;59166;48.908;1.870;2023-03-03T05:57:23;48.27;;;18.33;;
71360;SDS011;59166;48.908;1.870;2023-03-03T06:02:23;47.60;;;18.60;;
71360;SDS011;59166;48.908;1.870;2023-03-03T06:07:24;48.97;;;17.00;;
71360;SDS011;59166;48.908;1.870;2023-03-03T06:12:26;45.10;;;17.67;;
71360;SDS011;59166;48.908;1.870;2023-03-03T06:17:27;46.03;;;17.83;;
71360;SDS011;59166;48.908;1.870;2023-03-03T06:22:27;57.90;;;20.30;;
71360;SDS011;59166;48.908;1.870;2023-03-03T06:27:29;52.70;;;19.53;;
71360;SDS011;59166;48.908;1.870;2023-03-03T06:32:30;55.22;;;20.65;;
71360;SDS011;59166;48.908;1.870;2023-03-03T06:37:30;56.33;;;21.33;;
71360;SDS011;59166;48.908;1.870;2023-03-03T06:42:32;63.85;;;22.73;;
71360;SDS011;59166;48.908;1.870;2023-03-03T06:47:33;50.17;;;20.43;;
71360;SDS011;59166;48.908;1.870;2023-03-03T06:52:34;61.30;;;21.77;;
71360;SDS011;59166;48.908;1.870;2023-03-03T06:57:36;43.67;;;17.03;;
71360;SDS011;59166;48.908;1.870;2023-03-03T07:02:36;50.80;;;18.77;;
71360;SDS011;59166;48.908;1.870;2023-03-03T07:07:37;60.57;;;22.30;;
71360;SDS011;59166;48.908;1.870;2023-03-03T07:12:39;68.37;;;24.97;;
71360;SDS011;59166;48.908;1.870;2023-03-03T07:17:41;48.55;;;17.20;;
71360;SDS011;59166;48.908;1.870;2023-03-03T07:22:44;72.23;;;26.70;;
71360;SDS011;59166;48.908;1.870;2023-03-03T07:27:47;64.33;;;25.17;;
71360;SDS011;59166;48.908;1.870;2023-03-03T07:32:47;72.43;;;26.98;;
71360;SDS011;59166;48.908;1.870;2023-03-03T07:37:48;60.63;;;22.83;;
71360;SDS011;59166;48.908;1.870;2023-03-03T07:42:50;67.47;;;25.27;;
71360;SDS011;59166;48.908;1.870;2023-03-03T07:47:50;64.33;;;22.97;;
71360;SDS011;59166;48.908;1.870;2023-03-03T07:52:53;74.10;;;27.48;;
71360;SDS011;59166;48.908;1.870;2023-03-03T07:57:58;66.90;;;24.42;;
71360;SDS011;59166;48.908;1.870;2023-03-03T08:03:17;68.37;;;25.17;;
71360;SDS011;59166;48.908;1.870;2023-03-03T08:08:29;69.07;;;25.30;;
71360;SDS011;59166;48.908;1.870;2023-03-03T08:13:37;68.18;;;25.95;;
71360;SDS011;59166;48.908;1.870;2023-03-03T08:18:40;69.77;;;26.53;;
71360;SDS011;59166;48.908;1.870;2023-03-03T08:23:43;64.88;;;24.95;;
71360;SDS011;59166;48.908;1.870;2023-03-03T08:28:46;65.43;;;24.02;;
71360;SDS011;59166;48.908;1.870;2023-03-03T08:33:46;63.93;;;25.73;;
71360;SDS011;59166;48.908;1.870;2023-03-03T08:38:47;52.80;;;20.17;;
71360;SDS011;59166;48.908;1.870;2023-03-03T08:43:49;64.97;;;24.70;;
71360;SDS011;59166;48.908;1.870;2023-03-03T08:48:50;63.75;;;23.83;;
71360;SDS011;59166;48.908;1.870;2023-03-03T08:53:51;44.70;;;16.07;;
71360;SDS011;59166;48.908;1.870;2023-03-03T08:58:53;57.08;;;21.95;;
71360;SDS011;59166;48.908;1.870;2023-03-03T09:03:53;56.33;;;22.17;;
71360;SDS011;59166;48.908;1.870;2023-03-03T09:08:54;42.97;;;16.90;;
71360;SDS011;59166;48.908;1.870;2023-03-03T09:13:58;51.60;;;20.00;;
71360;SDS011;59166;48.908;1.870;2023-03-03T09:19:15;54.45;;;21.33;;
71360;SDS011;59166;48.908;1.870;2023-03-03T09:24:23;49.90;;;19.27;;
71360;SDS011;59166;48.908;1.870;2023-03-03T09:29:27;34.43;;;13.60;;
71360;SDS011;59166;48.908;1.870;2023-03-03T09:34:36;46.40;;;18.83;;
71360;SDS011;59166;48.908;1.870;2023-03-03T09:39:39;36.13;;;13.88;;
71360;SDS011;59166;48.908;1.870;2023-03-03T09:44:51;49.23;;;19.20;;
71360;SDS011;59166;48.908;1.870;2023-03-03T09:50:06;37.08;;;13.93;;
71360;SDS011;59166;48.908;1.870;2023-03-03T10:00:44;40.93;;;15.93;;
71360;SDS011;59166;48.908;1.870;2023-03-03T10:05:53;36.28;;;14.52;;
71360;SDS011;59166;48.908;1.870;2023-03-03T10:11:00;35.97;;;13.13;;
71360;SDS011;59166;48.908;1.870;2023-03-03T10:21:38;37.67;;;14.38;;
71360;SDS011;59166;48.908;1.870;2023-03-03T10:26:50;24.42;;;9.43;;
71360;SDS011;59166;48.908;1.870;2023-03-03T10:32:11;18.43;;;6.50;;
71360;SDS011;59166;48.908;1.870;2023-03-03T10:37:34;13.13;;;5.50;;
71360;SDS011;59166;48.908;1.870;2023-03-03T10:42:59;31.45;;;11.63;;
71360;SDS011;59166;48.908;1.870;2023-03-03T10:48:19;33.60;;;12.60;;
71360;SDS011;59166;48.908;1.870;2023-03-03T10:53:40;31.93;;;12.47;;
71360;SDS011;59166;48.908;1.870;2023-03-03T10:59:00;16.77;;;6.82;;
71360;SDS011;59166;48.908;1.870;2023-03-03T11:04:22;32.10;;;11.40;;
71360;SDS011;59166;48.908;1.870;2023-03-03T11:09:35;25.63;;;9.97;;
71360;SDS011;59166;48.908;1.870;2023-03-03T11:14:52;26.52;;;10.07;;
71360;SDS011;59166;48.908;1.870;2023-03-03T11:20:08;28.10;;;10.77;;
71360;SDS011;59166;48.908;1.870;2023-03-03T11:25:25;23.20;;;8.20;;
71360;SDS011;59166;48.908;1.870;2023-03-03T11:30:38;25.70;;;9.75;;
71360;SDS011;59166;48.908;1.870;2023-03-03T11:35:47;24.58;;;9.10;;
71360;SDS011;59166;48.908;1.870;2023-03-03T11:40:54;16.87;;;5.50;;
71360;SDS011;59166;48.908;1.870;2023-03-03T11:45:58;23.07;;;8.33;;
71360;SDS011;59166;48.908;1.870;2023-03-03T11:51:04;22.70;;;8.40;;
71360;SDS011;59166;48.908;1.870;2023-03-03T11:56:09;22.63;;;8.45;;
71360;SDS011;59166;48.908;1.870;2023-03-03T12:01:19;22.30;;;8.60;;
71360;SDS011;59166;48.908;1.870;2023-03-03T12:06:28;21.27;;;8.55;;
71360;SDS011;59166;48.908;1.870;2023-03-03T12:11:40;25.85;;;8.88;;
71360;SDS011;59166;48.908;1.870;2023-03-03T12:16:48;21.17;;;8.13;;
71360;SDS011;59166;48.908;1.870;2023-03-03T12:22:06;17.08;;;6.57;;
71360;SDS011;59166;48.908;1.870;2023-03-03T12:27:16;21.10;;;8.40;;
71360;SDS011;59166;48.908;1.870;2023-03-03T12:32:25;20.80;;;7.67;;
71360;SDS011;59166;48.908;1.870;2023-03-03T12:37:47;20.23;;;8.20;;
71360;SDS011;59166;48.908;1.870;2023-03-03T12:43:01;22.67;;;8.55;;
71360;SDS011;59166;48.908;1.870;2023-03-03T12:48:08;21.00;;;8.45;;
71360;SDS011;59166;48.908;1.870;2023-03-03T12:53:21;18.70;;;7.73;;
71360;SDS011;59166;48.908;1.870;2023-03-03T12:58:34;20.10;;;7.90;;
71360;SDS011;59166;48.908;1.870;2023-03-03T13:03:42;21.17;;;8.63;;
71360;SDS011;59166;48.908;1.870;2023-03-03T13:08:57;17.17;;;5.80;;
71360;SDS011;59166;48.908;1.870;2023-03-03T13:14:19;16.60;;;6.70;;
71360;SDS011;59166;48.908;1.870;2023-03-03T13:19:26;15.75;;;6.70;;
71360;SDS011;59166;48.908;1.870;2023-03-03T13:24:34;17.43;;;7.27;;
71360;SDS011;59166;48.908;1.870;2023-03-03T13:29:49;17.30;;;7.40;;
71360;SDS011;59166;48.908;1.870;2023-03-03T13:34:56;16.35;;;6.55;;
71360;SDS011;59166;48.908;1.870;2023-03-03T13:40:05;14.23;;;5.85;;
71360;SDS011;59166;48.908;1.870;2023-03-03T13:45:20;12.30;;;5.43;;
71360;SDS011;59166;48.908;1.870;2023-03-03T13:50:25;15.23;;;6.93;;
71360;SDS011;59166;48.908;1.870;2023-03-03T13:55:31;14.60;;;6.80;;
71360;SDS011;59166;48.908;1.870;2023-03-03T14:00:42;14.27;;;6.50;;
71360;SDS011;59166;48.908;1.870;2023-03-03T14:05:55;10.70;;;4.60;;
71360;SDS011;59166;48.908;1.870;2023-03-03T14:11:04;13.23;;;6.50;;
71360;SDS011;59166;48.908;1.870;2023-03-03T14:16:13;15.03;;;7.23;;
71360;SDS011;59166;48.908;1.870;2023-03-03T14:21:18;14.40;;;6.50;;
71360;SDS011;59166;48.908;1.870;2023-03-03T14:26:23;13.93;;;6.15;;
71360;SDS011;59166;48.908;1.870;2023-03-03T14:31:26;14.07;;;6.70;;
71360;SDS011;59166;48.908;1.870;2023-03-03T14:36:30;14.23;;;6.17;;
71360;SDS011;59166;48.908;1.870;2023-03-03T14:41:37;9.80;;;3.90;;
71360;SDS011;59166;48.908;1.870;2023-03-03T14:46:42;14.18;;;6.43;;
71360;SDS011;59166;48.908;1.870;2023-03-03T14:51:43;11.13;;;4.90;;
71360;SDS011;59166;48.908;1.870;2023-03-03T14:56:59;14.20;;;6.78;;
71360;SDS011;59166;48.908;1.870;2023-03-03T15:02:13;13.57;;;6.32;;
71360;SDS011;59166;48.908;1.870;2023-03-03T15:07:30;14.70;;;6.47;;
71360;SDS011;59166;48.908;1.870;2023-03-03T15:12:34;14.30;;;6.50;;
71360;SDS011;59166;48.908;1.870;2023-03-03T15:17:38;13.45;;;6.28;;
71360;SDS011;59166;48.908;1.870;2023-03-03T15:22:45;11.98;;;5.32;;
71360;SDS011;59166;48.908;1.870;2023-03-03T15:27:48;15.70;;;5.67;;
71360;SDS011;59166;48.908;1.870;2023-03-03T15:32:55;12.00;;;5.57;;
71360;SDS011;59166;48.908;1.870;2023-03-03T15:38:06;13.65;;;5.30;;
71360;SDS011;59166;48.908;1.870;2023-03-03T15:43:19;8.80;;;3.63;;
71360;SDS011;59166;48.908;1.870;2023-03-03T15:48:38;10.15;;;3.38;;
71360;SDS011;59166;48.908;1.870;2023-03-03T15:53:54;9.10;;;3.45;;
71360;SDS011;59166;48.908;1.870;2023-03-03T15:59:24;17.13;;;6.93;;
71360;SDS011;59166;48.908;1.870;2023-03-03T16:04:43;15.60;;;7.27;;
71360;SDS011;59166;48.908;1.870;2023-03-03T16:09:53;15.95;;;7.13;;
71360;SDS011;59166;48.908;1.870;2023-03-03T16:15:06;15.88;;;7.30;;
71360;SDS011;59166;48.908;1.870;2023-03-03T16:20:20;16.23;;;7.57;;
71360;SDS011;59166;48.908;1.870;2023-03-03T16:30:55;19.17;;;7.95;;
71360;SDS011;59166;48.908;1.870;2023-03-03T16:36:05;18.03;;;7.63;;
71360;SDS011;59166;48.908;1.870;2023-03-03T16:41:12;20.20;;;8.32;;
71360;SDS011;59166;48.908;1.870;2023-03-03T16:46:20;21.02;;;8.70;;
71360;SDS011;59166;48.908;1.870;2023-03-03T16:51:34;23.70;;;10.27;;
71360;SDS011;59166;48.908;1.870;2023-03-03T16:56:45;21.50;;;8.93;;
71360;SDS011;59166;48.908;1.870;2023-03-03T17:01:54;22.88;;;9.10;;
71360;SDS011;59166;48.908;1.870;2023-03-03T17:07:05;22.77;;;9.63;;
71360;SDS011;59166;48.908;1.870;2023-03-03T17:12:20;25.33;;;9.53;;
71360;SDS011;59166;48.908;1.870;2023-03-03T17:17:36;26.35;;;9.88;;
71360;SDS011;59166;48.908;1.870;2023-03-03T17:22:46;25.58;;;9.45;;
71360;SDS011;59166;48.908;1.870;2023-03-03T17:28:03;25.27;;;9.23;;
71360;SDS011;59166;48.908;1.870;2023-03-03T17:33:19;25.40;;;9.82;;
71360;SDS011;59166;48.908;1.870;2023-03-03T17:38:37;28.95;;;10.57;;
71360;SDS011;59166;48.908;1.870;2023-03-03T17:43:50;27.40;;;10.37;;
71360;SDS011;59166;48.908;1.870;2023-03-03T17:49:04;23.47;;;8.93;;
71360;SDS011;59166;48.908;1.870;2023-03-03T17:54:30;27.60;;;10.30;;
71360;SDS011;59166;48.908;1.870;2023-03-03T17:59:47;28.83;;;10.45;;
71360;SDS011;59166;48.908;1.870;2023-03-03T18:05:11;30.13;;;11.00;;
71360;SDS011;59166;48.908;1.870;2023-03-03T18:10:30;27.63;;;10.68;;
71360;SDS011;59166;48.908;1.870;2023-03-03T18:15:52;26.83;;;9.52;;
71360;SDS011;59166;48.908;1.870;2023-03-03T18:21:03;22.97;;;8.13;;
71360;SDS011;59166;48.908;1.870;2023-03-03T18:31:43;18.77;;;7.47;;
71360;SDS011;59166;48.908;1.870;2023-03-03T18:36:52;28.27;;;11.33;;
71360;SDS011;59166;48.908;1.870;2023-03-03T18:42:07;31.30;;;11.47;;
71360;SDS011;59166;48.908;1.870;2023-03-03T18:47:10;31.02;;;11.23;;
71360;SDS011;59166;48.908;1.870;2023-03-03T18:52:15;29.27;;;11.18;;
71360;SDS011;59166;48.908;1.870;2023-03-03T18:57:20;28.50;;;10.70;;
71360;SDS011;59166;48.908;1.870;2023-03-03T19:02:23;33.13;;;12.52;;
71360;SDS011;59166;48.908;1.870;2023-03-03T19:07:42;29.63;;;11.07;;
71360;SDS011;59166;48.908;1.870;2023-03-03T19:12:52;32.83;;;12.37;;
71360;SDS011;59166;48.908;1.870;2023-03-03T19:17:54;32.55;;;11.82;;
71360;SDS011;59166;48.908;1.870;2023-03-03T19:22:59;31.73;;;11.60;;
71360;SDS011;59166;48.908;1.870;2023-03-03T19:28:10;36.70;;;12.10;;
71360;SDS011;59166;48.908;1.870;2023-03-03T19:39:02;33.60;;;11.82;;
71360;SDS011;59166;48.908;1.870;2023-03-03T19:44:19;32.33;;;10.98;;
71360;SDS011;59166;48.908;1.870;2023-03-03T19:49:46;33.23;;;11.30;;
71360;SDS011;59166;48.908;1.870;2023-03-03T19:55:14;34.03;;;12.18;;
71360;SDS011;59166;48.908;1.870;2023-03-03T20:00:25;29.98;;;11.02;;
71360;SDS011;59166;48.908;1.870;2023-03-03T20:05:31;30.77;;;11.67;;
71360;SDS011;59166;48.908;1.870;2023-03-03T20:10:40;30.80;;;11.10;;
71360;SDS011;59166;48.908;1.870;2023-03-03T20:15:49;35.28;;;12.90;;
71360;SDS011;59166;48.908;1.870;2023-03-03T20:21:04;33.63;;;12.80;;
71360;SDS011;59166;48.908;1.870;2023-03-03T20:26:13;32.57;;;12.40;;
71360;SDS011;59166;48.908;1.870;2023-03-03T20:31:21;31.83;;;12.55;;
71360;SDS011;59166;48.908;1.870;2023-03-03T20:36:30;30.50;;;11.57;;
71360;SDS011;59166;48.908;1.870;2023-03-03T20:47:05;31.83;;;11.70;;
71360;SDS011;59166;48.908;1.870;2023-03-03T20:52:15;31.33;;;12.07;;
71360;SDS011;59166;48.908;1.870;2023-03-03T20:57:23;32.77;;;12.27;;
71360;SDS011;59166;48.908;1.870;2023-03-03T21:02:35;34.03;;;13.38;;
71360;SDS011;59166;48.908;1.870;2023-03-03T21:07:53;31.63;;;12.20;;
71360;SDS011;59166;48.908;1.870;2023-03-03T21:12:56;34.77;;;12.60;;
71360;SDS011;59166;48.908;1.870;2023-03-03T21:17:59;35.80;;;12.80;;
71360;SDS011;59166;48.908;1.870;2023-03-03T21:23:21;35.95;;;13.27;;
71360;SDS011;59166;48.908;1.870;2023-03-03T21:28:23;34.87;;;13.67;;
71360;SDS011;59166;48.908;1.870;2023-03-03T21:33:46;35.47;;;13.02;;
71360;SDS011;59166;48.908;1.870;2023-03-03T21:38:52;34.15;;;13.35;;
71360;SDS011;59166;48.908;1.870;2023-03-03T21:43:53;34.20;;;12.83;;
71360;SDS011;59166;48.908;1.870;2023-03-03T21:48:55;37.77;;;14.03;;
71360;SDS011;59166;48.908;1.870;2023-03-03T21:53:56;35.83;;;13.38;;
71360;SDS011;59166;48.908;1.870;2023-03-03T21:58:57;36.07;;;13.20;;
71360;SDS011;59166;48.908;1.870;2023-03-03T22:03:59;35.50;;;13.35;;
71360;SDS011;59166;48.908;1.870;2023-03-03T22:09:00;35.07;;;13.00;;
71360;SDS011;59166;48.908;1.870;2023-03-03T22:14:01;39.40;;;14.50;;
71360;SDS011;59166;48.908;1.870;2023-03-03T22:19:04;35.22;;;14.20;;
71360;SDS011;59166;48.908;1.870;2023-03-03T22:24:06;41.10;;;15.77;;
71360;SDS011;59166;48.908;1.870;2023-03-03T22:29:07;36.47;;;14.32;;
71360;SDS011;59166;48.908;1.870;2023-03-03T22:34:10;37.90;;;12.85;;
71360;SDS011;59166;48.908;1.870;2023-03-03T22:39:11;40.43;;;14.10;;
71360;SDS011;59166;48.908;1.870;2023-03-03T22:44:12;38.63;;;14.18;;
71360;SDS011;59166;48.908;1.870;2023-03-03T22:49:14;38.63;;;14.20;;
71360;SDS011;59166;48.908;1.870;2023-03-03T22:54:15;39.42;;;14.25;;
71360;SDS011;59166;48.908;1.870;2023-03-03T22:59:16;37.40;;;13.40;;
71360;SDS011;59166;48.908;1.870;2023-03-03T23:04:18;39.25;;;14.50;;
71360;SDS011;59166;48.908;1.870;2023-03-03T23:09:19;38.33;;;13.30;;
71360;SDS011;59166;48.908;1.870;2023-03-03T23:14:20;37.87;;;13.83;;
71360;SDS011;59166;48.908;1.870;2023-03-03T23:19:22;38.95;;;15.02;;
71360;SDS011;59166;48.908;1.870;2023-03-03T23:24:23;40.03;;;14.70;;
71360;SDS011;59166;48.908;1.870;2023-03-03T23:29:24;37.65;;;15.40;;
71360;SDS011;59166;48.908;1.870;2023-03-03T23:34:26;37.70;;;14.43;;
71360;SDS011;59166;48.908;1.870;2023-03-03T23:39:27;41.13;;;15.52;;
71360;SDS011;59166;48.908;1.870;2023-03-03T23:44:28;31.53;;;12.37;;
71360;SDS011;59166;48.908;1.870;2023-03-03T23:49:30;36.35;;;13.05;;
71360;SDS011;59166;48.908;1.870;2023-03-03T23:54:31;42.97;;;15.27;;
71360;SDS011;59166;48.908;1.870;2023-03-03T23:59:32;37.70;;;14.20;;
